createdAt,value
2022-12-27T00:01:37.492Z,99292.25
2022-12-27T00:04:05.470Z,99295.22
2022-12-27T00:06:35.885Z,99294.59
2022-12-27T00:09:06.391Z,99299.41
2022-12-27T00:11:33.363Z,99301.81
2022-12-27T00:14:04.383Z,99317.28
2022-12-27T00:16:31.705Z,99328.00
2022-12-27T00:19:00.311Z,99327.53
2022-12-27T00:21:27.706Z,99333.63
2022-12-27T00:23:57.937Z,99337.53
2022-12-27T00:26:30.460Z,99348.59
2022-12-27T00:28:58.359Z,99346.72
2022-12-27T00:31:30.406Z,99351.09
2022-12-27T00:33:59.786Z,99347.56
2022-12-27T00:36:31.791Z,99355.69
2022-12-27T00:39:00.222Z,99356.22
2022-12-27T00:41:28.681Z,99359.03
2022-12-27T00:43:59.560Z,99370.84
2022-12-27T00:46:27.264Z,99374.28
2022-12-27T01:03:26.070Z,99401.66
2022-12-27T01:06:10.464Z,99406.34
2022-12-27T01:08:44.196Z,99406.06
2022-12-27T01:17:40.142Z,99427.63
2022-12-27T01:20:08.249Z,99431.03
2022-12-27T01:22:43.456Z,99431.22
2022-12-27T01:25:20.052Z,99434.50
2022-12-27T01:27:46.716Z,99436.44
2022-12-27T01:30:13.439Z,99442.56
2022-12-27T01:32:40.246Z,99446.66
2022-12-27T01:35:07.236Z,99453.41
2022-12-27T01:37:33.951Z,99454.72
2022-12-27T01:40:00.850Z,99463.94
2022-12-27T01:42:46.063Z,99472.69
2022-12-27T01:45:20.308Z,99486.09
2022-12-27T01:48:04.420Z,99488.97
2022-12-27T01:50:31.283Z,99490.75
2022-12-27T01:53:14.407Z,99498.50
2022-12-27T01:55:47.558Z,99505.78
2022-12-27T01:58:21.522Z,99507.09
2022-12-27T02:00:50.537Z,99515.97
2022-12-27T02:03:30.753Z,99521.94
2022-12-27T02:06:01.372Z,99522.44
2022-12-27T02:08:40.254Z,99527.91
2022-12-27T02:11:08.948Z,99529.03
2022-12-27T02:13:39.452Z,99531.63
2022-12-27T02:16:15.935Z,99528.56
2022-12-27T02:18:43.462Z,99536.94
2022-12-27T02:21:54.122Z,99540.03
2022-12-27T02:24:31.603Z,99546.97
2022-12-27T02:27:01.447Z,99555.03
2022-12-27T02:29:57.058Z,99553.72
2022-12-27T02:32:45.012Z,99561.66
2022-12-27T02:35:21.635Z,99564.88
2022-12-27T02:37:54.841Z,99567.91
2022-12-27T02:40:42.416Z,99566.31
2022-12-27T02:43:28.092Z,99573.09
2022-12-27T02:46:22.045Z,99566.78
2022-12-27T02:49:12.436Z,99574.84
2022-12-27T02:52:32.591Z,99567.91
2022-12-27T02:55:29.570Z,99574.69
2022-12-27T02:58:25.115Z,99577.28
2022-12-27T03:01:19.422Z,99577.91
2022-12-27T03:03:55.023Z,99580.81
2022-12-27T03:06:56.944Z,99588.38
2022-12-27T03:09:45.081Z,99595.16
2022-12-27T03:12:55.326Z,99592.44
2022-12-27T03:15:55.135Z,99588.53
2022-12-27T03:18:35.412Z,99595.47
2022-12-27T03:21:23.465Z,99599.50
2022-12-27T03:24:12.650Z,99603.03
2022-12-27T03:26:43.906Z,99603.34
2022-12-27T03:29:29.548Z,99608.97
2022-12-27T03:32:18.835Z,99609.13
2022-12-27T03:34:52.367Z,99606.38
2022-12-27T03:37:41.870Z,99609.09
2022-12-27T03:40:26.775Z,99607.00
2022-12-27T03:43:11.502Z,99602.69
2022-12-27T03:46:22.494Z,99606.16
2022-12-27T03:49:25.132Z,99616.66
2022-12-27T03:51:59.960Z,99617.47
2022-12-27T03:54:30.198Z,99626.72
2022-12-27T03:57:00.725Z,99631.22
2022-12-27T03:59:27.649Z,99634.72
2022-12-27T04:01:54.833Z,99630.03
2022-12-27T04:04:21.464Z,99629.53
2022-12-27T04:06:47.885Z,99628.38
2022-12-27T04:09:32.937Z,99630.16
2022-12-27T04:12:17.839Z,99631.63
2022-12-27T04:15:03.181Z,99627.09
2022-12-27T04:17:48.352Z,99637.63
2022-12-27T04:20:33.564Z,99631.66
2022-12-27T04:23:18.880Z,99635.19
2022-12-27T04:26:04.515Z,99634.56
2022-12-27T04:28:49.260Z,99636.81
2022-12-27T04:31:34.453Z,99642.31
2022-12-27T04:34:19.429Z,99634.56
2022-12-27T04:36:45.928Z,99634.34
2022-12-27T04:39:12.877Z,99640.75
2022-12-27T04:41:57.882Z,99634.75
2022-12-27T04:44:42.697Z,99634.22
2022-12-27T04:47:31.742Z,99641.91
2022-12-27T04:50:17.082Z,99635.16
2022-12-27T04:53:01.826Z,99645.16
2022-12-27T04:55:29.684Z,99647.28
2022-12-27T04:57:58.134Z,99647.72
2022-12-27T05:00:47.202Z,99647.81
2022-12-27T05:03:18.245Z,99644.94
2022-12-27T05:05:46.127Z,99648.69
2022-12-27T05:08:33.317Z,99644.56
2022-12-27T05:11:18.775Z,99647.41
2022-12-27T05:13:59.994Z,99651.31
2022-12-27T05:16:36.682Z,99658.56
2022-12-27T05:19:03.955Z,99658.59
2022-12-27T05:21:30.458Z,99665.88
2022-12-27T05:24:15.320Z,99665.28
2022-12-27T05:26:41.758Z,99669.03
2022-12-27T05:29:08.672Z,99673.66
2022-12-27T05:31:35.256Z,99670.09
2022-12-27T05:34:01.710Z,99678.50
2022-12-27T05:36:28.124Z,99681.72
2022-12-27T05:38:54.720Z,99681.34
2022-12-27T05:41:21.158Z,99672.66
2022-12-27T05:43:47.739Z,99671.88
2022-12-27T05:46:17.746Z,99673.78
2022-12-27T05:48:44.292Z,99672.53
2022-12-27T05:51:19.319Z,99677.00
2022-12-27T05:53:46.875Z,99676.63
2022-12-27T05:56:19.046Z,99679.88
2022-12-27T05:58:45.869Z,99679.56
2022-12-27T06:01:15.848Z,99677.28
2022-12-27T06:03:42.989Z,99682.44
2022-12-27T06:06:10.226Z,99675.97
2022-12-27T06:08:36.925Z,99680.47
2022-12-27T06:11:11.120Z,99682.44
2022-12-27T06:13:38.930Z,99673.38
2022-12-27T06:16:07.775Z,99672.59
2022-12-27T06:18:36.077Z,99678.09
2022-12-27T06:21:16.995Z,99673.38
2022-12-27T06:23:44.935Z,99678.69
2022-12-27T06:26:16.589Z,99676.72
2022-12-27T06:28:43.120Z,99691.59
2022-12-27T06:31:10.310Z,99689.16
2022-12-27T06:33:36.818Z,99693.97
2022-12-27T06:36:08.012Z,99694.13
2022-12-27T06:38:34.843Z,99690.47
2022-12-27T06:41:02.835Z,99691.75
2022-12-27T06:43:29.302Z,99685.75
2022-12-27T06:46:00.403Z,99704.94
2022-12-27T06:48:27.168Z,99707.38
2022-12-27T06:50:54.259Z,99713.34
2022-12-27T06:53:21.316Z,99706.41
2022-12-27T06:55:47.829Z,99719.16
2022-12-27T06:58:14.978Z,99717.41
2022-12-27T07:00:42.199Z,99719.03
2022-12-27T07:03:08.587Z,99726.78
2022-12-27T07:05:36.512Z,99722.06
2022-12-27T07:08:02.986Z,99721.88
2022-12-27T07:10:29.591Z,99718.81
2022-12-27T07:12:56.657Z,99726.53
2022-12-27T07:15:23.711Z,99726.09
2022-12-27T07:17:50.338Z,99734.88
2022-12-27T07:20:16.790Z,99734.91
2022-12-27T07:22:43.818Z,99743.31
2022-12-27T07:25:10.195Z,99737.88
2022-12-27T07:27:37.369Z,99737.56
2022-12-27T07:30:04.952Z,99739.78
2022-12-27T07:32:31.912Z,99741.69
2022-12-27T07:34:58.493Z,99746.34
2022-12-27T07:37:24.934Z,99739.22
2022-12-27T07:39:51.329Z,99753.59
2022-12-27T07:42:17.758Z,99755.31
2022-12-27T07:44:44.160Z,99761.16
2022-12-27T07:47:10.600Z,99764.88
2022-12-27T07:49:36.969Z,99766.66
2022-12-27T07:52:03.460Z,99763.47
2022-12-27T07:54:29.852Z,99765.84
2022-12-27T07:56:56.340Z,99764.72
2022-12-27T07:59:22.762Z,99764.81
2022-12-27T08:02:04.544Z,99770.53
2022-12-27T08:04:32.541Z,99765.81
2022-12-27T08:07:06.159Z,99764.56
2022-12-27T08:09:36.540Z,99770.78
2022-12-27T08:12:03.091Z,99780.63
2022-12-27T08:14:29.968Z,99777.72
2022-12-27T08:17:04.261Z,99782.41
2022-12-27T08:19:30.687Z,99781.94
2022-12-27T08:21:57.066Z,99779.69
2022-12-27T08:24:24.474Z,99779.38
2022-12-27T08:26:50.922Z,99767.41
2022-12-27T08:29:17.388Z,99761.28
2022-12-27T08:31:43.857Z,99769.03
2022-12-27T08:34:10.419Z,99765.16
2022-12-27T08:36:54.554Z,99759.78
2022-12-27T08:39:22.055Z,99762.84
2022-12-27T08:41:49.292Z,99763.28
2022-12-27T08:44:15.706Z,99764.31
2022-12-27T08:46:42.167Z,99768.19
2022-12-27T08:49:08.791Z,99779.50
2022-12-27T08:51:40.644Z,99782.94
2022-12-27T08:54:08.213Z,99778.31
2022-12-27T08:56:34.989Z,99778.59
2022-12-27T08:59:14.464Z,99778.69
2022-12-27T09:01:41.211Z,99786.72
2022-12-27T09:04:08.731Z,99783.72
2022-12-27T09:06:36.282Z,99789.53
2022-12-27T09:09:02.851Z,99795.63
2022-12-27T09:11:33.099Z,99797.00
2022-12-27T09:14:02.235Z,99801.41
2022-12-27T09:16:29.723Z,99812.34
2022-12-27T09:18:58.961Z,99811.22
2022-12-27T09:21:28.997Z,99811.94
2022-12-27T09:23:56.068Z,99822.81
2022-12-27T09:26:29.175Z,99825.59
2022-12-27T09:28:56.358Z,99817.91
2022-12-27T09:31:24.355Z,99817.56
2022-12-27T09:33:52.056Z,99819.97
2022-12-27T09:36:25.354Z,99829.03
2022-12-27T09:38:53.845Z,99820.78
2022-12-27T09:42:33.719Z,99835.31
2022-12-27T09:44:29.852Z,99825.63
2022-12-27T09:47:05.419Z,99825.50
2022-12-27T09:49:41.718Z,99832.88
2022-12-27T09:52:17.120Z,99829.88
2022-12-27T09:54:44.141Z,99835.00
2022-12-27T09:57:38.993Z,99822.69
2022-12-27T10:00:12.677Z,99823.63
2022-12-27T10:02:39.185Z,99824.28
2022-12-27T10:05:21.524Z,99823.78
2022-12-27T10:08:13.736Z,99825.56
2022-12-27T10:10:48.417Z,99819.38
2022-12-27T10:13:41.065Z,99826.19
2022-12-27T10:16:16.872Z,99826.53
2022-12-27T10:19:02.247Z,99822.78
2022-12-27T10:21:34.381Z,99815.25
2022-12-27T10:24:14.826Z,99808.00
2022-12-27T10:26:42.321Z,99804.44
2022-12-27T10:29:21.099Z,99805.59
2022-12-27T10:31:47.989Z,99797.53
2022-12-27T10:34:17.255Z,99788.38
2022-12-27T10:36:45.333Z,99793.16
2022-12-27T10:39:20.555Z,99789.47
2022-12-27T10:42:00.705Z,99798.72
2022-12-27T10:44:29.586Z,99787.00
2022-12-27T10:46:57.174Z,99786.47
2022-12-27T10:49:35.811Z,99790.56
2022-12-27T10:52:19.835Z,99785.50
2022-12-27T10:57:35.734Z,99792.06
2022-12-27T11:00:20.157Z,99789.66
2022-12-27T11:02:55.185Z,99782.81
2022-12-27T11:05:28.850Z,99781.81
2022-12-27T11:07:55.917Z,99783.63
2022-12-27T11:13:18.902Z,99776.28
2022-12-27T11:15:58.747Z,99780.88
2022-12-27T11:18:26.664Z,99764.56
2022-12-27T11:20:56.732Z,99764.72
2022-12-27T11:23:28.218Z,99765.44
2022-12-27T11:25:54.821Z,99755.34
2022-12-27T11:28:42.354Z,99767.16
2022-12-27T11:31:12.982Z,99763.56
2022-12-27T11:33:42.571Z,99770.44
2022-12-27T11:36:12.663Z,99767.44
2022-12-27T11:38:44.777Z,99767.44
2022-12-27T11:41:17.055Z,99761.25
2022-12-27T11:43:50.953Z,99761.25
2022-12-27T11:46:58.825Z,99767.97
2022-12-27T11:49:34.331Z,99770.41
2022-12-27T11:52:21.990Z,99764.28
2022-12-27T11:54:48.660Z,99760.53
2022-12-27T11:57:27.550Z,99757.28
2022-12-27T12:00:17.281Z,99755.84
2022-12-27T12:03:56.834Z,99758.00
2022-12-27T12:07:12.008Z,99750.13
2022-12-27T12:09:58.999Z,99755.78
2022-12-27T12:13:02.591Z,99760.25
2022-12-27T12:15:47.896Z,99762.19
2022-12-27T12:18:35.690Z,99765.88
2022-12-27T12:21:38.023Z,99760.88
2022-12-27T12:24:34.765Z,99755.97
2022-12-27T12:27:16.659Z,99749.13
2022-12-27T12:30:06.261Z,99756.13
2022-12-27T12:32:52.864Z,99744.31
2022-12-27T12:36:03.614Z,99757.19
2022-12-27T12:44:41.745Z,99750.75
2022-12-27T12:47:32.947Z,99752.44
2022-12-27T12:50:44.981Z,99763.56
2022-12-27T12:56:29.868Z,99742.94
2022-12-27T12:59:32.872Z,99744.41
2022-12-27T13:05:34.758Z,99739.44
2022-12-27T13:11:36.377Z,99735.97
2022-12-27T13:24:44.375Z,99739.47
2022-12-27T13:28:01.268Z,99735.78
2022-12-27T13:30:54.353Z,99738.75
2022-12-27T13:36:48.181Z,99735.97
2022-12-27T13:39:34.730Z,99737.41
2022-12-27T13:42:29.179Z,99742.72
2022-12-27T13:45:14.284Z,99739.19
2022-12-27T13:48:01.283Z,99736.88
2022-12-27T13:51:05.842Z,99740.66
2022-12-27T13:53:43.968Z,99741.34
2022-12-27T13:56:54.483Z,99749.13
2022-12-27T13:59:36.608Z,99737.47
2022-12-27T14:02:12.339Z,99737.22
2022-12-27T14:05:01.182Z,99747.16
2022-12-27T14:07:43.141Z,99752.81
2022-12-27T14:10:28.639Z,99750.03
2022-12-27T14:12:56.396Z,99760.25
2022-12-27T14:15:51.175Z,99759.00
2022-12-27T14:18:39.321Z,99764.34
2022-12-27T14:21:42.548Z,99759.44
2022-12-27T14:24:36.739Z,99759.25
2022-12-27T14:30:56.749Z,99758.66
2022-12-27T14:34:01.641Z,99757.81
2022-12-27T14:36:57.680Z,99775.34
2022-12-27T14:39:36.493Z,99763.16
2022-12-27T14:47:01.812Z,99768.16
2022-12-27T14:49:10.739Z,99768.31
2022-12-27T14:52:03.489Z,99765.25
2022-12-27T14:54:53.679Z,99775.66
2022-12-27T15:04:54.961Z,99780.31
2022-12-27T15:07:40.513Z,99779.97
2022-12-27T15:10:21.211Z,99780.59
2022-12-27T15:13:43.604Z,99769.81
2022-12-27T15:16:42.671Z,99765.25
2022-12-27T15:19:42.833Z,99766.75
2022-12-27T15:22:55.420Z,99768.44
2022-12-27T15:27:54.255Z,99775.22
2022-12-27T15:32:40.536Z,99768.31
2022-12-27T15:38:15.705Z,99764.06
2022-12-27T15:41:16.589Z,99768.38
2022-12-27T15:44:14.387Z,99765.69
2022-12-27T15:47:18.183Z,99765.09
2022-12-27T15:50:02.337Z,99750.84
2022-12-27T15:52:53.964Z,99750.19
2022-12-27T15:55:29.698Z,99748.41
2022-12-27T15:58:21.773Z,99751.03
2022-12-27T16:01:26.155Z,99746.88
2022-12-27T16:04:07.986Z,99758.22
2022-12-27T16:09:31.027Z,99750.56
2022-12-27T16:13:01.321Z,99750.88
2022-12-27T16:18:59.784Z,99740.19
2022-12-27T16:19:51.236Z,99741.50
2022-12-27T16:22:57.592Z,99743.69
2022-12-27T16:26:05.631Z,99744.44
2022-12-27T16:28:44.293Z,99749.84
2022-12-27T16:31:20.428Z,99747.28
2022-12-27T16:36:47.982Z,99756.88
2022-12-27T16:39:31.472Z,99758.06
2022-12-27T16:45:50.771Z,99760.91
2022-12-27T16:48:31.244Z,99759.16
2022-12-27T16:51:28.408Z,99755.78
2022-12-27T16:54:27.680Z,99759.38
2022-12-27T16:57:31.811Z,99753.09
2022-12-27T17:00:03.849Z,99757.47
2022-12-27T17:02:46.662Z,99752.44
2022-12-27T17:05:17.192Z,99754.88
2022-12-27T17:07:54.558Z,99758.09
2022-12-27T17:10:28.053Z,99752.16
2022-12-27T17:13:12.559Z,99755.22
2022-12-27T17:16:07.974Z,99748.25
2022-12-27T17:19:09.292Z,99747.94
2022-12-27T17:25:21.637Z,99745.69
2022-12-27T17:28:39.612Z,99741.50
2022-12-27T17:31:36.869Z,99739.44
2022-12-27T17:34:30.618Z,99731.53
2022-12-27T17:37:14.369Z,99727.16
2022-12-27T17:39:54.993Z,99720.34
2022-12-27T17:42:50.499Z,99727.63
2022-12-27T17:46:09.848Z,99728.13
2022-12-27T17:49:28.093Z,99721.84
2022-12-27T17:52:35.959Z,99718.44
2022-12-27T17:55:54.537Z,99704.69
2022-12-27T18:02:30.184Z,99704.22
2022-12-27T18:05:27.604Z,99712.31
2022-12-27T18:08:04.273Z,99704.84
2022-12-27T18:10:57.289Z,99703.56
2022-12-27T18:13:30.485Z,99699.06
2022-12-27T18:16:20.899Z,99697.59
2022-12-27T18:22:05.735Z,99687.72
2022-12-27T18:24:57.521Z,99689.19
2022-12-27T18:34:52.053Z,99700.19
2022-12-27T18:44:53.217Z,99700.16
2022-12-27T18:57:41.409Z,99695.13
2022-12-27T18:59:55.909Z,99707.31
2022-12-27T19:00:45.895Z,99696.13
2022-12-27T19:03:21.761Z,99696.28
2022-12-27T19:06:43.495Z,99700.81
2022-12-27T19:16:27.360Z,99690.91
2022-12-27T19:19:34.632Z,99687.69
2022-12-27T19:24:27.475Z,99681.22
2022-12-27T19:26:43.221Z,99681.97
2022-12-27T19:29:57.351Z,99686.97
2022-12-27T19:36:14.553Z,99686.28
2022-12-27T19:40:58.184Z,99681.06
2022-12-27T19:43:56.260Z,99685.03
2022-12-27T19:46:38.817Z,99690.66
2022-12-27T19:49:46.880Z,99699.69
2022-12-27T19:52:53.864Z,99700.84
2022-12-27T19:56:47.921Z,99705.84
2022-12-27T19:58:57.184Z,99710.00
2022-12-27T20:01:37.912Z,99700.28
2022-12-27T20:04:21.279Z,99701.41
2022-12-27T20:07:00.154Z,99697.88
2022-12-27T20:10:09.175Z,99692.03
2022-12-27T20:13:21.475Z,99684.16
2022-12-27T20:16:19.519Z,99675.25
2022-12-27T20:18:53.977Z,99672.66
2022-12-27T20:21:33.732Z,99670.53
2022-12-27T20:24:13.958Z,99669.69
2022-12-27T20:27:07.442Z,99666.97
2022-12-27T20:33:26.376Z,99665.03
2022-12-27T20:36:34.246Z,99659.69
2022-12-27T20:39:04.990Z,99656.44
2022-12-27T20:41:31.732Z,99652.63
2022-12-27T20:44:14.616Z,99646.34
2022-12-27T20:46:41.921Z,99646.06
2022-12-27T20:49:09.149Z,99642.66
2022-12-27T20:51:39.454Z,99634.97
2022-12-27T20:54:27.656Z,99630.31
2022-12-27T20:58:29.740Z,99620.16
2022-12-27T21:00:57.783Z,99628.13
2022-12-27T21:05:06.777Z,99624.53
2022-12-27T21:06:48.190Z,99636.53
2022-12-27T21:27:46.423Z,99616.66
2022-12-27T21:30:48.845Z,99614.59
2022-12-27T21:36:55.318Z,99619.47
2022-12-27T21:45:50.549Z,99603.09
2022-12-27T21:48:22.109Z,99601.16
2022-12-27T21:51:30.251Z,99603.09
2022-12-27T21:54:00.252Z,99599.72
2022-12-27T21:56:52.060Z,99584.78
2022-12-27T21:59:40.705Z,99586.47
2022-12-27T22:02:58.241Z,99593.69
2022-12-27T22:05:09.146Z,99596.13
2022-12-27T22:07:42.993Z,99587.97
2022-12-27T22:10:24.145Z,99592.81
2022-12-27T22:12:55.917Z,99588.84
2022-12-27T22:15:26.949Z,99580.38
2022-12-27T22:19:12.740Z,99593.56
2022-12-27T22:21:53.925Z,99583.69
2022-12-27T22:24:30.901Z,99579.88
2022-12-27T22:27:19.448Z,99565.22
2022-12-27T22:29:46.238Z,99561.91
2022-12-27T22:32:22.406Z,99548.72
2022-12-27T22:34:51.733Z,99560.16
2022-12-27T22:38:25.450Z,99544.47
2022-12-27T22:40:37.558Z,99547.19
2022-12-27T22:43:36.300Z,99560.72
2022-12-27T22:46:17.467Z,99548.66
2022-12-27T22:53:16.039Z,99562.88
2022-12-27T22:55:48.345Z,99558.44
2022-12-27T22:58:16.855Z,99557.84
2022-12-27T23:00:46.760Z,99557.94
2022-12-27T23:03:16.619Z,99558.53
2022-12-27T23:05:43.618Z,99557.56
2022-12-27T23:08:17.563Z,99549.47
2022-12-27T23:10:46.231Z,99561.97
2022-12-27T23:13:22.418Z,99566.75
2022-12-27T23:16:09.588Z,99570.50
2022-12-27T23:18:39.648Z,99569.19
2022-12-27T23:21:21.165Z,99566.63
2022-12-27T23:23:52.559Z,99561.47
2022-12-27T23:26:27.285Z,99561.03
2022-12-27T23:28:56.879Z,99552.41
2022-12-27T23:31:32.462Z,99558.66
2022-12-27T23:34:00.216Z,99556.06
2022-12-27T23:36:31.499Z,99557.50
2022-12-27T23:38:58.323Z,99555.28
2022-12-27T23:41:29.013Z,99540.50
2022-12-27T23:43:56.538Z,99544.31
2022-12-27T23:46:29.045Z,99544.31
2022-12-27T23:48:57.832Z,99543.06
2022-12-27T23:54:33.139Z,99554.09
2022-12-27T23:57:20.096Z,99547.84
2022-12-27T23:59:46.388Z,99533.34
